createdAt,value
2023-05-10T00:02:55.432Z,9.65
2023-05-10T00:03:57.178Z,9.45
2023-05-10T00:04:58.835Z,16.15
2023-05-10T00:06:00.466Z,11.63
2023-05-10T00:07:02.512Z,8.52
2023-05-10T00:08:04.233Z,11.60
2023-05-10T00:09:05.813Z,9.98
2023-05-10T00:10:07.867Z,14.27
2023-05-10T00:11:09.497Z,11.82
2023-05-10T00:12:11.143Z,12.60
2023-05-10T00:13:12.885Z,13.13
2023-05-10T00:14:14.466Z,8.35
2023-05-10T00:15:16.142Z,13.27
2023-05-10T00:16:17.723Z,9.95
2023-05-10T00:17:19.433Z,9.07
2023-05-10T00:18:21.362Z,11.65
2023-05-10T00:19:23.057Z,6.82
2023-05-10T00:20:24.923Z,10.80
2023-05-10T00:21:26.940Z,10.40
2023-05-10T00:22:28.637Z,10.43
2023-05-10T00:23:30.451Z,9.25
2023-05-10T00:24:32.185Z,11.50
2023-05-10T00:25:33.913Z,8.95
2023-05-10T00:26:35.784Z,12.00
2023-05-10T00:27:37.549Z,8.95
2023-05-10T00:28:39.276Z,12.10
2023-05-10T00:29:40.974Z,9.48
2023-05-10T00:30:42.656Z,9.60
2023-05-10T00:31:44.390Z,10.27
2023-05-10T00:32:46.336Z,10.00
2023-05-10T00:33:48.126Z,9.60
2023-05-10T00:34:49.804Z,8.93
2023-05-10T00:35:51.768Z,10.85
2023-05-10T00:36:53.537Z,13.07
2023-05-10T00:37:55.210Z,9.75
2023-05-10T00:38:57.031Z,14.30
2023-05-10T00:39:58.749Z,12.38
2023-05-10T00:41:00.697Z,9.02
2023-05-10T00:42:02.745Z,12.48
2023-05-10T00:43:04.545Z,13.98
2023-05-10T00:44:06.602Z,10.02
2023-05-10T00:45:09.126Z,14.15
2023-05-10T00:46:10.993Z,11.80
2023-05-10T00:47:12.928Z,9.73
2023-05-10T00:48:14.726Z,10.60
2023-05-10T00:49:17.702Z,14.85
2023-05-10T00:50:19.561Z,11.48
2023-05-10T00:51:21.819Z,12.00
2023-05-10T00:52:24.799Z,10.82
2023-05-10T00:53:26.727Z,12.25
2023-05-10T00:54:28.593Z,17.10
2023-05-10T00:55:31.131Z,9.75
2023-05-10T00:56:32.889Z,14.98
2023-05-10T00:57:34.825Z,11.57
2023-05-10T00:58:36.792Z,9.90
2023-05-10T00:59:38.762Z,14.18
2023-05-10T01:00:43.798Z,14.68
2023-05-10T01:01:46.590Z,10.90
2023-05-10T01:02:48.976Z,13.32
2023-05-10T01:03:52.190Z,13.10
2023-05-10T01:04:53.935Z,10.90
2023-05-10T01:05:56.337Z,16.92
2023-05-10T01:06:58.280Z,12.75
2023-05-10T01:07:59.989Z,11.88
2023-05-10T01:09:01.700Z,16.00
2023-05-10T01:10:03.536Z,15.80
2023-05-10T01:11:05.360Z,17.23
2023-05-10T01:12:08.459Z,17.50
2023-05-10T01:13:11.029Z,13.50
2023-05-10T01:14:12.921Z,15.13
2023-05-10T01:15:16.532Z,16.75
2023-05-10T01:16:18.496Z,14.23
2023-05-10T01:17:21.616Z,16.88
2023-05-10T01:18:23.817Z,15.07
2023-05-10T01:19:28.303Z,12.20
2023-05-10T01:20:49.009Z,15.45
2023-05-10T01:22:12.418Z,14.82
2023-05-10T01:24:10.698Z,19.17
2023-05-10T01:25:42.870Z,14.75
2023-05-10T01:27:04.923Z,11.70
2023-05-10T01:28:22.160Z,17.42
2023-05-10T01:29:32.935Z,15.38
2023-05-10T01:30:57.401Z,15.70
2023-05-10T01:32:04.794Z,13.63
2023-05-10T01:33:25.860Z,16.55
2023-05-10T01:34:51.561Z,12.40
2023-05-10T01:36:02.375Z,12.30
2023-05-10T01:37:12.028Z,11.75
2023-05-10T01:38:19.319Z,15.32
2023-05-10T01:39:34.018Z,11.93
2023-05-10T01:40:41.140Z,13.88
2023-05-10T01:41:48.618Z,14.45
2023-05-10T01:43:00.391Z,15.70
2023-05-10T01:44:15.094Z,18.83
2023-05-10T01:45:38.114Z,12.95
2023-05-10T01:46:41.295Z,14.65
2023-05-10T01:48:00.397Z,14.40
2023-05-10T01:49:05.151Z,14.15
2023-05-10T01:50:16.286Z,13.45
2023-05-10T01:52:42.089Z,14.98
2023-05-10T01:53:45.814Z,14.35
2023-05-10T01:55:10.218Z,15.10
2023-05-10T01:56:13.349Z,17.52
2023-05-10T01:57:17.926Z,13.68
2023-05-10T01:58:26.282Z,16.17
2023-05-10T01:59:32.910Z,17.40
2023-05-10T02:00:36.299Z,19.65
2023-05-10T02:01:39.937Z,15.95
2023-05-10T02:02:49.741Z,17.13
2023-05-10T02:03:52.553Z,19.15
2023-05-10T02:04:56.612Z,20.23
2023-05-10T02:05:59.574Z,15.07
2023-05-10T02:07:01.684Z,14.60
2023-05-10T02:08:07.044Z,16.98
2023-05-10T02:09:11.853Z,18.60
2023-05-10T02:10:15.654Z,16.33
2023-05-10T02:11:19.579Z,14.35
2023-05-10T02:12:23.611Z,18.45
2023-05-10T02:13:28.130Z,20.55
2023-05-10T02:14:33.319Z,14.73
2023-05-10T02:15:36.410Z,15.70
2023-05-10T02:16:40.500Z,15.60
2023-05-10T02:17:43.515Z,15.68
2023-05-10T02:18:46.942Z,16.40
2023-05-10T02:19:49.497Z,17.33
2023-05-10T02:20:53.540Z,17.77
2023-05-10T02:21:56.996Z,16.45
2023-05-10T02:22:59.215Z,16.25
2023-05-10T02:24:03.740Z,16.88
2023-05-10T02:25:07.561Z,17.42
2023-05-10T02:26:10.170Z,17.08
2023-05-10T02:27:13.622Z,17.65
2023-05-10T02:28:16.636Z,15.10
2023-05-10T02:29:19.601Z,20.75
2023-05-10T02:30:22.796Z,17.10
2023-05-10T02:31:24.775Z,17.58
2023-05-10T02:32:28.702Z,15.10
2023-05-10T02:33:32.758Z,17.98
2023-05-10T02:34:34.752Z,15.43
2023-05-10T02:35:37.077Z,19.95
2023-05-10T02:36:41.220Z,16.65
2023-05-10T02:37:44.844Z,18.70
2023-05-10T02:38:48.334Z,18.58
2023-05-10T02:39:56.186Z,13.82
2023-05-10T02:40:59.113Z,17.08
2023-05-10T02:42:03.427Z,17.35
2023-05-10T02:43:07.634Z,21.52
2023-05-10T02:44:10.781Z,19.17
2023-05-10T02:45:16.089Z,18.52
2023-05-10T02:46:17.994Z,14.90
2023-05-10T02:47:20.218Z,19.73
2023-05-10T02:48:22.050Z,19.27
2023-05-10T02:49:23.897Z,16.17
2023-05-10T02:50:29.162Z,16.85
2023-05-10T02:51:33.371Z,20.05
2023-05-10T02:52:45.566Z,17.90
2023-05-10T02:53:48.211Z,19.02
2023-05-10T02:54:53.250Z,21.17
2023-05-10T02:56:00.652Z,15.43
2023-05-10T02:57:05.598Z,22.00
2023-05-10T02:58:07.451Z,16.17
2023-05-10T02:59:09.564Z,14.13
2023-05-10T03:00:11.787Z,21.48
2023-05-10T03:01:13.567Z,17.83
2023-05-10T03:02:15.445Z,16.40
2023-05-10T03:03:17.213Z,20.60
2023-05-10T03:04:19.239Z,20.00
2023-05-10T03:05:21.593Z,19.70
2023-05-10T03:06:23.379Z,20.67
2023-05-10T03:07:25.245Z,18.55
2023-05-10T03:08:29.678Z,17.95
2023-05-10T03:09:32.548Z,16.05
2023-05-10T03:10:39.237Z,22.20
2023-05-10T03:11:48.476Z,15.68
2023-05-10T03:13:21.942Z,17.88
2023-05-10T03:14:35.719Z,14.85
2023-05-10T03:15:59.511Z,20.42
2023-05-10T03:17:23.669Z,19.50
2023-05-10T03:18:46.013Z,22.50
2023-05-10T03:19:58.969Z,20.65
2023-05-10T03:21:06.305Z,17.88
2023-05-10T03:22:11.998Z,18.40
2023-05-10T03:23:15.386Z,19.92
2023-05-10T03:24:19.983Z,21.33
2023-05-10T03:25:23.083Z,21.13
2023-05-10T03:26:29.512Z,21.38
2023-05-10T03:27:33.367Z,22.20
2023-05-10T03:28:36.485Z,17.55
2023-05-10T03:29:40.245Z,18.17
2023-05-10T03:30:42.933Z,18.33
2023-05-10T03:31:44.965Z,22.75
2023-05-10T03:32:47.053Z,22.65
2023-05-10T03:33:53.326Z,23.48
2023-05-10T03:34:55.055Z,18.33
2023-05-10T03:35:56.802Z,20.85
2023-05-10T03:36:58.669Z,16.08
2023-05-10T03:38:00.364Z,19.33
2023-05-10T03:39:02.082Z,19.08
2023-05-10T03:40:04.566Z,19.95
2023-05-10T03:41:06.279Z,20.88
2023-05-10T03:42:08.029Z,20.05
2023-05-10T03:43:09.840Z,19.08
2023-05-10T03:44:11.789Z,21.90
2023-05-10T03:45:13.695Z,19.13
2023-05-10T03:46:15.458Z,18.02
2023-05-10T03:47:17.196Z,19.85
2023-05-10T03:48:18.905Z,18.48
2023-05-10T03:49:20.625Z,21.65
2023-05-10T03:50:22.500Z,19.95
2023-05-10T03:51:25.239Z,18.45
2023-05-10T03:52:27.155Z,19.02
2023-05-10T03:53:28.866Z,19.77
2023-05-10T03:54:30.592Z,21.42
2023-05-10T03:55:35.588Z,16.83
2023-05-10T03:56:37.408Z,18.25
2023-05-10T03:57:39.171Z,21.20
2023-05-10T03:58:40.887Z,24.05
2023-05-10T03:59:42.570Z,19.58
2023-05-10T04:00:47.079Z,25.02
2023-05-10T04:01:48.898Z,20.45
2023-05-10T04:02:50.830Z,18.65
2023-05-10T04:03:52.772Z,25.45
2023-05-10T04:04:54.537Z,19.35
2023-05-10T04:06:03.536Z,16.33
2023-05-10T04:07:05.433Z,21.05
2023-05-10T04:08:07.583Z,23.17
2023-05-10T04:09:09.494Z,21.08
2023-05-10T04:10:12.226Z,23.35
2023-05-10T04:11:14.813Z,19.13
2023-05-10T04:12:16.537Z,25.20
2023-05-10T04:13:18.266Z,18.67
2023-05-10T04:14:20.069Z,17.52
2023-05-10T04:15:21.933Z,22.70
2023-05-10T04:16:23.750Z,16.90
2023-05-10T04:17:25.506Z,20.80
2023-05-10T04:18:27.273Z,19.65
2023-05-10T04:19:32.394Z,22.45
2023-05-10T04:20:34.551Z,16.15
2023-05-10T04:21:36.234Z,17.50
2023-05-10T04:22:38.020Z,20.95
2023-05-10T04:23:39.848Z,17.60
2023-05-10T04:24:41.555Z,20.88
2023-05-10T04:25:43.842Z,22.60
2023-05-10T04:26:45.684Z,22.85
2023-05-10T04:27:47.461Z,19.42
2023-05-10T04:28:49.243Z,19.42
2023-05-10T04:29:51.685Z,20.92
2023-05-10T04:30:53.436Z,21.73
2023-05-10T04:31:56.361Z,27.48
2023-05-10T04:32:58.087Z,23.25
2023-05-10T04:33:59.825Z,17.48
2023-05-10T04:35:03.967Z,16.20
2023-05-10T04:36:06.257Z,21.08
2023-05-10T04:37:08.717Z,20.42
2023-05-10T04:38:10.611Z,22.27
2023-05-10T04:39:12.310Z,18.60
2023-05-10T04:40:14.147Z,17.20
2023-05-10T04:41:16.142Z,19.10
2023-05-10T04:42:17.987Z,17.27
2023-05-10T04:43:20.243Z,15.85
2023-05-10T04:44:21.976Z,18.05
2023-05-10T04:45:23.803Z,18.83
2023-05-10T04:46:26.049Z,18.00
2023-05-10T04:47:27.844Z,19.70
2023-05-10T04:48:29.716Z,15.07
2023-05-10T04:49:31.433Z,21.33
2023-05-10T04:50:33.130Z,17.55
2023-05-10T04:51:35.307Z,17.65
2023-05-10T04:52:37.595Z,21.25
2023-05-10T04:53:39.453Z,18.55
2023-05-10T04:54:41.193Z,17.63
2023-05-10T04:55:43.228Z,26.10
2023-05-10T04:56:44.946Z,19.42
2023-05-10T04:57:46.742Z,15.02
2023-05-10T04:58:48.481Z,13.75
2023-05-10T04:59:50.647Z,17.98
2023-05-10T05:00:52.427Z,17.77
2023-05-10T05:01:54.192Z,20.55
2023-05-10T05:02:56.019Z,15.43
2023-05-10T05:03:57.998Z,19.00
2023-05-10T05:04:59.886Z,15.02
2023-05-10T05:06:01.587Z,18.80
2023-05-10T05:07:03.366Z,14.90
2023-05-10T05:08:05.168Z,17.95
2023-05-10T05:09:06.902Z,15.45
2023-05-10T05:10:09.971Z,14.80
2023-05-10T05:11:11.657Z,16.42
2023-05-10T05:12:15.370Z,18.65
2023-05-10T05:13:17.200Z,17.98
2023-05-10T05:14:19.007Z,15.00
2023-05-10T05:15:20.844Z,16.42
2023-05-10T05:16:22.696Z,12.80
2023-05-10T05:17:24.475Z,13.57
2023-05-10T05:18:26.210Z,12.95
2023-05-10T05:19:28.503Z,17.65
2023-05-10T05:20:34.064Z,14.60
2023-05-10T05:21:35.807Z,17.40
2023-05-10T05:22:38.321Z,15.25
2023-05-10T05:23:40.036Z,18.92
2023-05-10T05:24:41.780Z,15.93
2023-05-10T05:25:43.846Z,14.35
2023-05-10T05:26:45.550Z,15.57
2023-05-10T05:27:47.270Z,13.65
2023-05-10T05:28:50.255Z,16.10
2023-05-10T05:29:53.958Z,14.07
2023-05-10T05:30:55.654Z,13.25
2023-05-10T05:31:57.382Z,12.73
2023-05-10T05:32:59.254Z,16.02
2023-05-10T05:34:01.002Z,15.93
2023-05-10T05:35:02.721Z,11.50
2023-05-10T05:36:06.064Z,11.40
2023-05-10T05:37:07.851Z,13.73
2023-05-10T05:38:09.960Z,17.17
2023-05-10T05:39:12.242Z,12.02
2023-05-10T05:40:15.151Z,15.63
2023-05-10T05:41:16.867Z,16.67
2023-05-10T05:42:19.905Z,15.05
2023-05-10T05:43:21.676Z,15.00
2023-05-10T05:44:23.359Z,14.43
2023-05-10T05:45:25.066Z,14.75
2023-05-10T05:46:26.862Z,15.48
2023-05-10T05:47:28.802Z,17.30
2023-05-10T05:48:33.591Z,14.57
2023-05-10T05:49:35.361Z,16.25
2023-05-10T05:50:37.122Z,13.48
2023-05-10T05:51:38.896Z,17.60
2023-05-10T05:52:40.742Z,15.27
2023-05-10T05:53:42.439Z,15.75
2023-05-10T05:54:44.420Z,17.15
2023-05-10T05:55:56.926Z,20.27
2023-05-10T05:57:01.197Z,15.50
2023-05-10T05:58:03.614Z,17.75
2023-05-10T05:59:05.366Z,14.60
2023-05-10T06:00:07.776Z,12.90
2023-05-10T06:01:09.735Z,19.92
2023-05-10T06:02:11.933Z,14.07
2023-05-10T06:03:13.743Z,14.80
2023-05-10T06:04:15.842Z,13.95
2023-05-10T06:05:18.024Z,15.50
2023-05-10T06:06:19.877Z,19.63
2023-05-10T06:07:22.129Z,15.25
2023-05-10T06:08:23.874Z,17.85
2023-05-10T06:09:25.718Z,12.90
2023-05-10T06:10:27.691Z,15.55
2023-05-10T06:11:29.529Z,15.10
2023-05-10T06:12:32.557Z,14.27
2023-05-10T06:13:36.376Z,13.45
2023-05-10T06:14:38.120Z,13.02
2023-05-10T06:15:39.940Z,12.70
2023-05-10T06:16:41.785Z,13.45
2023-05-10T06:17:44.523Z,14.88
2023-05-10T06:18:46.240Z,16.60
2023-05-10T06:19:48.092Z,11.52
2023-05-10T06:20:51.260Z,16.48
2023-05-10T06:21:54.007Z,14.48
2023-05-10T06:22:55.909Z,17.73
2023-05-10T06:23:57.758Z,13.00
2023-05-10T06:24:59.585Z,11.95
2023-05-10T06:26:01.457Z,14.25
2023-05-10T06:27:03.289Z,12.73
2023-05-10T06:28:04.977Z,12.48
2023-05-10T06:29:07.066Z,12.40
2023-05-10T06:30:13.444Z,15.35
2023-05-10T06:31:15.552Z,12.98
2023-05-10T06:32:17.353Z,13.77
2023-05-10T06:33:19.050Z,11.50
2023-05-10T06:34:20.819Z,10.32
2023-05-10T06:35:22.608Z,11.38
2023-05-10T06:36:25.803Z,13.88
2023-05-10T06:37:27.495Z,9.68
2023-05-10T06:38:29.172Z,11.40
2023-05-10T06:39:30.931Z,11.30
2023-05-10T06:40:32.757Z,12.43
2023-05-10T06:41:34.498Z,15.05
2023-05-10T06:42:36.252Z,15.18
2023-05-10T06:43:41.028Z,12.18
2023-05-10T06:44:42.955Z,13.00
2023-05-10T06:45:45.048Z,12.88
2023-05-10T06:46:46.797Z,12.93
2023-05-10T06:47:48.612Z,17.50
2023-05-10T06:48:50.527Z,16.48
2023-05-10T06:49:52.334Z,12.55
2023-05-10T06:50:54.051Z,14.15
2023-05-10T06:51:57.206Z,8.90
2023-05-10T06:52:59.141Z,9.40
2023-05-10T06:54:01.245Z,14.98
2023-05-10T06:55:04.698Z,14.23
2023-05-10T06:56:06.645Z,12.73
2023-05-10T06:57:16.159Z,11.40
2023-05-10T06:58:25.809Z,12.38
2023-05-10T06:59:27.623Z,15.10
2023-05-10T07:00:29.446Z,13.93
2023-05-10T07:01:31.261Z,10.50
2023-05-10T07:02:33.144Z,10.20
2023-05-10T07:03:34.908Z,12.15
2023-05-10T07:04:36.754Z,9.38
2023-05-10T07:05:38.599Z,10.55
2023-05-10T07:06:40.482Z,13.77
2023-05-10T07:07:43.511Z,11.73
2023-05-10T07:08:45.243Z,11.23
2023-05-10T07:09:47.140Z,13.32
2023-05-10T07:10:48.860Z,7.88
2023-05-10T07:11:51.584Z,9.82
2023-05-10T07:12:53.565Z,10.02
2023-05-10T07:13:55.396Z,10.70
2023-05-10T07:14:57.087Z,8.70
2023-05-10T07:15:59.966Z,9.05
2023-05-10T07:17:01.830Z,8.43
2023-05-10T07:18:05.650Z,9.98
2023-05-10T07:19:07.554Z,10.38
2023-05-10T07:20:09.794Z,8.02
2023-05-10T07:21:14.162Z,11.50
2023-05-10T07:22:17.704Z,10.48
2023-05-10T07:23:19.913Z,9.25
2023-05-10T07:24:21.841Z,9.52
2023-05-10T07:25:23.575Z,8.48
2023-05-10T07:26:25.278Z,13.80
2023-05-10T07:27:27.117Z,10.10
2023-05-10T07:28:29.076Z,10.60
2023-05-10T07:29:30.933Z,12.60
2023-05-10T07:30:32.635Z,8.30
2023-05-10T07:31:34.542Z,9.93
2023-05-10T07:32:36.487Z,9.50
2023-05-10T07:33:38.381Z,8.43
2023-05-10T07:34:40.126Z,7.63
2023-05-10T07:35:41.987Z,7.40
2023-05-10T07:36:43.743Z,8.35
2023-05-10T07:37:45.706Z,12.30
2023-05-10T07:38:47.536Z,7.13
2023-05-10T07:39:49.212Z,8.27
2023-05-10T07:40:50.906Z,8.43
2023-05-10T07:41:52.597Z,9.32
2023-05-10T07:42:54.376Z,11.73
2023-05-10T07:43:56.197Z,8.00
2023-05-10T07:44:57.893Z,8.23
2023-05-10T07:46:00.852Z,9.18
2023-05-10T07:47:02.611Z,10.00
2023-05-10T07:48:04.411Z,12.38
2023-05-10T07:49:06.275Z,7.63
2023-05-10T07:50:08.853Z,9.18
2023-05-10T07:51:10.773Z,8.02
2023-05-10T07:52:12.952Z,9.48
2023-05-10T07:53:14.645Z,8.63
2023-05-10T07:54:16.356Z,10.48
2023-05-10T07:55:20.158Z,8.48
2023-05-10T07:56:28.431Z,8.30
2023-05-10T07:57:30.150Z,7.32
2023-05-10T07:58:31.835Z,8.70
2023-05-10T07:59:34.162Z,7.53
2023-05-10T08:00:36.040Z,5.75
2023-05-10T08:01:37.818Z,8.90
2023-05-10T08:02:39.756Z,6.55
2023-05-10T08:03:41.642Z,10.50
2023-05-10T08:04:43.510Z,7.40
2023-05-10T08:05:45.356Z,6.13
2023-05-10T08:06:47.039Z,6.55
2023-05-10T08:07:48.774Z,9.40
2023-05-10T08:08:51.698Z,7.60
2023-05-10T08:09:53.489Z,9.40
2023-05-10T08:10:55.207Z,6.65
2023-05-10T08:11:57.475Z,12.23
2023-05-10T08:12:59.667Z,6.72
2023-05-10T08:14:01.683Z,6.00
2023-05-10T08:15:04.381Z,10.40
2023-05-10T08:16:06.546Z,7.43
2023-05-10T08:17:08.323Z,7.78
2023-05-10T08:18:10.104Z,7.88
2023-05-10T08:19:11.910Z,5.18
2023-05-10T08:20:14.047Z,11.00
2023-05-10T08:21:16.757Z,9.80
2023-05-10T08:22:18.508Z,8.80
2023-05-10T08:23:20.233Z,10.35
2023-05-10T08:24:22.080Z,6.90
2023-05-10T08:25:23.801Z,11.82
2023-05-10T08:26:25.562Z,13.93
2023-05-10T08:27:27.288Z,8.70
2023-05-10T08:28:29.056Z,7.22
2023-05-10T08:29:38.634Z,7.10
2023-05-10T08:30:48.230Z,7.45
2023-05-10T08:31:50.056Z,7.88
2023-05-10T08:32:51.882Z,7.30
2023-05-10T08:33:53.816Z,6.05
2023-05-10T08:34:57.087Z,5.18
2023-05-10T08:35:58.832Z,6.68
2023-05-10T08:37:00.627Z,6.07
2023-05-10T08:38:02.552Z,8.93
2023-05-10T08:39:04.468Z,7.47
2023-05-10T08:40:06.880Z,10.85
2023-05-10T08:41:08.994Z,9.13
2023-05-10T08:42:11.173Z,6.85
2023-05-10T08:43:16.311Z,7.75
2023-05-10T08:44:19.441Z,6.28
2023-05-10T08:45:23.279Z,7.93
2023-05-10T08:46:25.109Z,7.50
2023-05-10T08:47:27.495Z,7.68
2023-05-10T08:48:30.922Z,6.57
2023-05-10T08:49:33.996Z,10.35
2023-05-10T08:50:38.235Z,6.10
2023-05-10T08:51:45.128Z,7.03
2023-05-10T08:52:50.662Z,6.72
2023-05-10T08:53:52.460Z,9.70
2023-05-10T08:54:54.318Z,7.13
2023-05-10T08:55:56.711Z,10.82
2023-05-10T08:56:58.612Z,10.50
2023-05-10T08:58:01.228Z,5.45
2023-05-10T08:59:03.016Z,7.13
2023-05-10T09:00:05.337Z,8.48
2023-05-10T09:01:08.348Z,7.72
2023-05-10T09:02:12.859Z,6.28
2023-05-10T09:03:15.144Z,7.95
2023-05-10T09:04:17.628Z,9.10
2023-05-10T09:05:19.869Z,11.40
2023-05-10T09:06:22.160Z,7.07
2023-05-10T09:07:23.950Z,7.38
2023-05-10T09:08:27.062Z,7.28
2023-05-10T09:09:29.330Z,6.40
2023-05-10T09:10:32.140Z,7.95
2023-05-10T09:11:34.043Z,6.20
2023-05-10T09:12:36.598Z,10.55
2023-05-10T09:13:38.355Z,7.30
2023-05-10T09:14:40.659Z,6.35
2023-05-10T09:15:42.694Z,10.30
2023-05-10T09:16:44.554Z,6.55
2023-05-10T09:17:47.415Z,7.55
2023-05-10T09:18:50.612Z,7.75
2023-05-10T09:20:02.429Z,7.28
2023-05-10T09:21:04.361Z,6.82
2023-05-10T09:22:06.260Z,8.02
2023-05-10T09:23:08.552Z,7.18
2023-05-10T09:24:10.370Z,7.85
2023-05-10T09:25:14.307Z,7.63
2023-05-10T09:26:17.291Z,8.05
2023-05-10T09:27:27.668Z,6.20
2023-05-10T09:28:33.142Z,8.13
2023-05-10T09:29:44.433Z,8.30
2023-05-10T09:30:54.777Z,6.85
2023-05-10T09:31:56.581Z,8.05
2023-05-10T09:32:59.635Z,8.52
2023-05-10T09:34:01.470Z,8.15
2023-05-10T09:35:10.273Z,7.40
2023-05-10T09:36:12.271Z,9.98
2023-05-10T09:37:14.580Z,9.80
2023-05-10T09:38:16.477Z,6.35
2023-05-10T09:39:19.037Z,6.45
2023-05-10T09:40:26.358Z,5.38
2023-05-10T09:41:29.223Z,9.40
2023-05-10T09:42:31.033Z,10.50
2023-05-10T09:43:39.058Z,4.90
2023-05-10T09:44:42.046Z,5.15
2023-05-10T09:45:43.812Z,6.53
2023-05-10T09:46:50.231Z,6.43
2023-05-10T09:47:52.501Z,5.05
2023-05-10T09:48:54.302Z,6.72
2023-05-10T09:50:04.113Z,6.65
2023-05-10T09:51:06.042Z,11.07
2023-05-10T09:52:09.078Z,7.90
2023-05-10T09:53:15.679Z,9.73
2023-05-10T09:54:17.995Z,4.78
2023-05-10T09:55:24.407Z,7.05
2023-05-10T09:56:37.008Z,5.18
2023-05-10T09:57:38.981Z,5.30
2023-05-10T09:58:41.572Z,6.60
2023-05-10T09:59:46.378Z,5.03
2023-05-10T10:00:49.051Z,5.13
2023-05-10T10:01:56.844Z,6.07
2023-05-10T10:03:01.117Z,7.38
2023-05-10T10:04:12.125Z,6.03
2023-05-10T10:05:14.821Z,7.05
2023-05-10T10:06:29.447Z,7.85
2023-05-10T10:07:33.099Z,10.25
2023-05-10T10:08:35.481Z,6.35
2023-05-10T10:09:37.242Z,9.90
2023-05-10T10:10:41.369Z,6.80
2023-05-10T10:11:43.321Z,5.95
2023-05-10T10:12:45.658Z,5.90
2023-05-10T10:13:47.469Z,7.63
2023-05-10T10:14:50.645Z,8.77
2023-05-10T10:15:55.199Z,6.55
2023-05-10T10:17:07.655Z,5.10
2023-05-10T10:18:15.768Z,6.25
2023-05-10T10:19:19.476Z,5.03
2023-05-10T10:20:23.474Z,6.72
2023-05-10T10:21:25.488Z,4.75
2023-05-10T10:22:27.348Z,9.15
2023-05-10T10:23:29.084Z,5.25
2023-05-10T10:24:30.899Z,7.85
2023-05-10T10:25:32.986Z,9.02
2023-05-10T10:26:37.436Z,5.18
2023-05-10T10:27:50.296Z,5.50
2023-05-10T10:29:34.027Z,6.80
2023-05-10T10:30:49.625Z,5.75
2023-05-10T10:31:54.808Z,9.68
2023-05-10T10:33:30.651Z,5.60
2023-05-10T10:34:33.005Z,8.88
2023-05-10T10:35:35.614Z,7.90
2023-05-10T10:36:48.256Z,7.30
2023-05-10T10:37:52.223Z,7.63
2023-05-10T10:39:01.918Z,5.93
2023-05-10T10:40:27.551Z,6.28
2023-05-10T10:41:50.933Z,9.82
2023-05-10T10:42:53.157Z,6.65
2023-05-10T10:44:25.910Z,5.55
2023-05-10T10:45:27.876Z,5.65
2023-05-10T10:46:29.632Z,5.30
2023-05-10T10:47:34.335Z,5.40
2023-05-10T10:48:37.055Z,6.60
2023-05-10T10:49:44.648Z,6.68
2023-05-10T10:50:49.626Z,6.68
2023-05-10T10:52:23.940Z,5.68
2023-05-10T10:53:29.503Z,6.38
2023-05-10T10:54:33.751Z,7.30
2023-05-10T10:55:35.588Z,7.05
2023-05-10T10:56:37.405Z,7.05
2023-05-10T10:57:42.507Z,5.18
2023-05-10T10:58:54.849Z,7.55
2023-05-10T11:00:18.650Z,7.28
2023-05-10T11:01:20.986Z,3.78
2023-05-10T11:02:54.954Z,6.75
2023-05-10T11:04:05.648Z,6.82
2023-05-10T11:05:28.957Z,6.28
2023-05-10T11:06:34.713Z,10.32
2023-05-10T11:07:36.558Z,4.60
2023-05-10T11:08:45.130Z,6.82
2023-05-10T11:09:48.561Z,5.75
2023-05-10T11:10:53.299Z,4.47
2023-05-10T11:11:59.537Z,4.45
2023-05-10T11:13:06.851Z,5.15
2023-05-10T11:14:09.053Z,8.52
2023-05-10T11:15:10.964Z,4.55
2023-05-10T11:16:24.294Z,5.18
2023-05-10T11:17:33.906Z,4.88
2023-05-10T11:18:38.052Z,5.40
2023-05-10T11:20:10.570Z,4.30
2023-05-10T11:21:12.593Z,4.18
2023-05-10T11:22:14.960Z,5.72
2023-05-10T11:23:18.786Z,5.75
2023-05-10T11:24:24.285Z,6.00
2023-05-10T11:25:29.344Z,5.80
2023-05-10T11:26:36.457Z,7.00
2023-05-10T11:27:39.269Z,3.70
2023-05-10T11:28:49.994Z,5.30
2023-05-10T11:29:54.799Z,6.78
2023-05-10T11:30:57.719Z,5.82
2023-05-10T11:32:00.742Z,6.18
2023-05-10T11:33:02.607Z,4.72
2023-05-10T11:34:04.346Z,5.43
2023-05-10T11:35:13.017Z,5.30
2023-05-10T11:36:20.251Z,5.22
2023-05-10T11:37:21.938Z,5.97
2023-05-10T11:38:23.640Z,5.63
2023-05-10T11:39:29.787Z,6.07
2023-05-10T11:40:31.598Z,6.30
2023-05-10T11:41:33.348Z,6.28
2023-05-10T11:42:35.106Z,4.20
2023-05-10T11:43:39.400Z,5.50
2023-05-10T11:44:42.141Z,6.90
2023-05-10T11:45:43.964Z,6.10
2023-05-10T11:46:45.835Z,6.22
2023-05-10T11:47:50.331Z,4.95
2023-05-10T11:48:54.102Z,5.68
2023-05-10T11:49:55.945Z,5.15
2023-05-10T11:50:59.046Z,5.95
2023-05-10T11:52:08.337Z,7.88
2023-05-10T11:53:10.101Z,5.45
2023-05-10T11:54:12.705Z,6.45
2023-05-10T11:55:14.585Z,4.65
2023-05-10T11:56:16.502Z,5.57
2023-05-10T11:57:20.182Z,5.88
2023-05-10T11:58:23.676Z,5.25
2023-05-10T11:59:26.405Z,7.70
2023-05-10T12:00:28.600Z,8.13
2023-05-10T12:01:30.421Z,5.93
2023-05-10T12:02:32.411Z,5.80
2023-05-10T12:03:35.306Z,9.10
2023-05-10T12:04:38.481Z,5.63
2023-05-10T12:05:43.166Z,8.27
2023-05-10T12:06:46.106Z,5.50
2023-05-10T12:07:47.821Z,6.35
2023-05-10T12:08:54.804Z,5.43
2023-05-10T12:10:11.329Z,6.15
2023-05-10T12:11:14.737Z,5.10
2023-05-10T12:12:19.527Z,5.05
2023-05-10T12:13:22.220Z,5.55
2023-05-10T12:14:25.451Z,4.97
2023-05-10T12:15:28.976Z,7.38
2023-05-10T12:16:31.279Z,5.32
2023-05-10T12:17:33.424Z,8.02
2023-05-10T12:18:35.183Z,8.50
2023-05-10T12:19:40.407Z,5.40
2023-05-10T12:20:42.452Z,25.50
2023-05-10T12:21:45.540Z,22.75
2023-05-10T12:22:50.711Z,8.32
2023-05-10T12:23:54.497Z,5.35
2023-05-10T12:24:56.280Z,5.72
2023-05-10T12:26:05.036Z,7.93
2023-05-10T12:28:31.507Z,5.97
2023-05-10T12:29:33.184Z,5.57
2023-05-10T12:30:36.611Z,7.43
2023-05-10T12:32:07.500Z,7.70
2023-05-10T12:33:10.763Z,8.00
2023-05-10T12:34:12.453Z,7.82
2023-05-10T12:35:14.095Z,7.45
2023-05-10T12:36:17.067Z,5.50
2023-05-10T12:37:18.639Z,10.98
2023-05-10T12:38:44.964Z,7.13
2023-05-10T12:39:47.204Z,8.20
2023-05-10T12:40:48.836Z,6.47
2023-05-10T12:41:50.452Z,6.45
2023-05-10T12:42:53.135Z,5.90
2023-05-10T12:43:54.793Z,25.77
2023-05-10T12:44:58.198Z,9.10
2023-05-10T12:46:05.112Z,12.30
2023-05-10T12:47:07.014Z,8.35
2023-05-10T12:48:08.793Z,10.20
2023-05-10T12:49:10.653Z,9.88
2023-05-10T12:50:12.408Z,15.38
2023-05-10T12:51:16.722Z,9.90
2023-05-10T12:52:18.439Z,7.35
2023-05-10T12:53:20.057Z,7.80
2023-05-10T12:54:21.689Z,13.63
2023-05-10T12:55:23.400Z,9.30
2023-05-10T12:56:25.109Z,10.82
2023-05-10T12:57:27.274Z,6.45
2023-05-10T12:58:35.623Z,7.10
2023-05-10T12:59:38.304Z,16.45
2023-05-10T13:00:40.157Z,6.97
2023-05-10T13:01:41.817Z,7.75
2023-05-10T13:02:43.534Z,8.40
2023-05-10T13:03:45.253Z,7.28
2023-05-10T13:04:48.910Z,7.25
2023-05-10T13:05:52.522Z,8.20
2023-05-10T13:06:54.212Z,6.40
2023-05-10T13:07:55.973Z,9.07
2023-05-10T13:08:58.627Z,7.13
2023-05-10T13:10:00.434Z,7.75
2023-05-10T13:11:02.697Z,7.85
2023-05-10T13:12:04.686Z,15.65
2023-05-10T13:13:06.388Z,7.03
2023-05-10T13:14:08.068Z,6.78
2023-05-10T13:15:10.104Z,8.20
2023-05-10T13:16:11.721Z,6.63
2023-05-10T13:17:13.457Z,7.63
2023-05-10T13:18:15.188Z,6.90
2023-05-10T13:19:17.622Z,6.40
2023-05-10T13:20:19.537Z,6.22
2023-05-10T13:21:21.230Z,6.53
2023-05-10T13:22:32.395Z,7.13
2023-05-10T13:23:41.137Z,7.38
2023-05-10T13:24:42.758Z,8.60
2023-05-10T13:25:44.461Z,7.68
2023-05-10T13:26:46.455Z,6.95
2023-05-10T13:27:48.044Z,8.35
2023-05-10T13:28:50.643Z,8.40
2023-05-10T13:29:52.265Z,11.05
2023-05-10T13:30:53.970Z,9.98
2023-05-10T13:31:55.749Z,11.18
2023-05-10T13:32:57.465Z,8.20
2023-05-10T13:33:59.110Z,8.65
2023-05-10T13:35:00.725Z,8.13
2023-05-10T13:36:02.315Z,11.07
2023-05-10T13:37:04.078Z,9.43
2023-05-10T13:38:09.048Z,6.85
2023-05-10T13:39:10.779Z,7.07
2023-05-10T13:40:12.617Z,7.25
2023-05-10T13:41:14.424Z,8.32
2023-05-10T13:42:16.508Z,7.85
2023-05-10T13:43:18.162Z,6.25
2023-05-10T13:44:21.617Z,6.28
2023-05-10T13:45:23.187Z,7.57
2023-05-10T13:46:24.902Z,6.32
2023-05-10T13:47:26.597Z,6.93
2023-05-10T13:48:28.301Z,6.05
2023-05-10T13:49:29.875Z,6.65
2023-05-10T13:50:31.474Z,10.40
2023-05-10T13:51:34.151Z,9.82
2023-05-10T13:52:36.167Z,7.82
2023-05-10T13:53:37.764Z,6.70
2023-05-10T13:54:40.034Z,6.18
2023-05-10T13:55:41.661Z,9.50
2023-05-10T13:56:43.526Z,8.23
2023-05-10T13:57:45.216Z,5.32
2023-05-10T13:58:47.448Z,6.82
2023-05-10T13:59:49.138Z,6.45
2023-05-10T14:00:50.729Z,7.32
2023-05-10T14:01:52.522Z,7.15